Time;durP1;ratioP1;P1;durP2;ratioP2;P2;SDS_P1;SDS_P2;PMS_P1;PMS_P2;Temp;Humidity;BMP_temperature;BMP_pressure;BME280_temperature;BME280_humidity;BME280_pressure;Samples;Min_cycle;Max_cycle;Signal;HPM_P1;HPM_P2
2021/11/12 07:17:37;;;;;;;11.30;7.80;;;;;;;;;;10479843;27;21185;-80
2021/11/12 07:22:38;;;;;;;23.50;9.63;;;;;;;;;;10481356;28;20041;-81
2021/11/12 07:27:38;;;;;;;16.98;9.30;;;;;;;;;;10479399;28;20029;-80
2021/11/12 07:32:39;;;;;;;15.27;10.38;;;;;;;;;;10476625;28;20029;-80
2021/11/12 07:37:40;;;;;;;24.40;9.48;;;;;;;;;;10475655;28;20059;-80
2021/11/12 07:48:17;;;;;;;16.67;9.95;;;;;;;;;;10518153;28;20041;-80
2021/11/12 07:53:18;;;;;;;13.63;9.57;;;;;;;;;;10467475;28;20025;-80
2021/11/12 07:58:18;;;;;;;18.60;9.73;;;;;;;;;;10470092;28;20039;-80
2021/11/12 08:03:19;;;;;;;13.77;8.00;;;;;;;;;;10464592;28;20457;-79
2021/11/12 08:08:22;;;;;;;13.63;8.15;;;;;;;;;;10468358;28;20044;-79
2021/11/12 08:13:36;;;;;;;14.35;8.02;;;;;;;;;;10489133;28;20188;-79
2021/11/12 08:40:12;;;;;;;13.33;8.40;;;;;;;;;;10448077;28;20033;-80
2021/11/12 08:44:55;;;;;;;12.18;8.00;;;;;;;;;;10456939;28;20040;-80
2021/11/12 08:49:57;;;;;;;14.00;7.55;;;;;;;;;;10450356;28;20355;-79
2021/11/12 08:55:02;;;;;;;15.02;7.70;;;;;;;;;;10453032;28;20054;-79
2021/11/12 09:00:06;;;;;;;13.05;7.22;;;;;;;;;;10434125;28;20053;-79
2021/11/12 09:05:07;;;;;;;11.40;7.20;;;;;;;;;;10433168;28;20031;-79
2021/11/12 09:10:07;;;;;;;11.38;7.60;;;;;;;;;;10437817;28;20390;-79
2021/11/12 09:15:25;;;;;;;11.57;7.80;;;;;;;;;;10434113;28;20045;-79
2021/11/12 09:20:26;;;;;;;25.98;7.70;;;;;;;;;;10437408;28;20029;-79
2021/11/12 09:25:27;;;;;;;11.88;7.32;;;;;;;;;;10440215;28;20459;-79
2021/11/12 09:30:33;;;;;;;10.57;7.30;;;;;;;;;;10442586;28;20029;-79
2021/11/12 09:35:35;;;;;;;16.42;7.13;;;;;;;;;;10455245;28;20083;-79
2021/11/12 09:40:35;;;;;;;11.48;7.47;;;;;;;;;;10437432;28;20029;-79
2021/11/12 09:45:36;;;;;;;10.68;6.88;;;;;;;;;;10457143;28;20029;-79
2021/11/12 09:50:37;;;;;;;10.13;6.60;;;;;;;;;;10455946;28;20163;-80
2021/11/12 09:55:37;;;;;;;9.05;6.88;;;;;;;;;;10443135;28;20040;-79
2021/11/12 10:00:39;;;;;;;8.77;6.75;;;;;;;;;;10456296;28;20366;-79
2021/11/12 10:05:47;;;;;;;8.77;6.50;;;;;;;;;;10455971;28;20082;-79
2021/11/12 10:10:54;;;;;;;10.50;6.93;;;;;;;;;;10433147;28;20044;-79
2021/11/12 10:21:16;;;;;;;9.20;6.75;;;;;;;;;;10443313;28;20042;-79
2021/11/12 10:26:17;;;;;;;9.67;6.67;;;;;;;;;;10430703;28;20468;-79
2021/11/12 10:31:19;;;;;;;15.75;6.88;;;;;;;;;;10455695;28;20474;-79
2021/11/12 10:36:20;;;;;;;9.48;6.90;;;;;;;;;;10454985;28;20447;-79
2021/11/12 10:41:25;;;;;;;8.52;6.63;;;;;;;;;;10443190;28;20041;-79
2021/11/12 10:46:33;;;;;;;9.50;6.60;;;;;;;;;;10431244;28;20081;-79
2021/11/12 10:52:10;;;;;;;10.02;6.63;;;;;;;;;;10439588;28;20121;-79
2021/11/12 10:57:11;;;;;;;9.77;6.45;;;;;;;;;;10453645;28;20135;-79
2021/11/12 11:02:26;;;;;;;10.40;6.65;;;;;;;;;;10441779;28;20033;-79
2021/11/12 11:07:27;;;;;;;9.27;6.07;;;;;;;;;;10432007;28;20032;-79
2021/11/12 11:12:40;;;;;;;10.18;6.85;;;;;;;;;;10438517;28;20037;-79
2021/11/12 11:17:46;;;;;;;9.55;6.65;;;;;;;;;;10453461;28;20033;-79
2021/11/12 11:23:00;;;;;;;10.90;6.88;;;;;;;;;;10427771;28;20025;-79
2021/11/12 11:28:02;;;;;;;9.73;6.03;;;;;;;;;;10464911;28;20036;-81
2021/11/12 11:33:02;;;;;;;11.50;6.18;;;;;;;;;;10455911;28;20347;-81
2021/11/12 11:38:03;;;;;;;7.75;6.03;;;;;;;;;;10473070;28;20040;-80
2021/11/12 11:43:05;;;;;;;8.52;5.93;;;;;;;;;;10445026;28;20036;-80
2021/11/12 11:48:06;;;;;;;8.55;6.03;;;;;;;;;;10467888;28;20462;-81
2021/11/12 11:53:39;;;;;;;9.50;5.93;;;;;;;;;;10449749;28;20036;-80
2021/11/12 11:58:44;;;;;;;9.02;5.82;;;;;;;;;;10452166;28;20135;-80
2021/11/12 12:03:46;;;;;;;13.18;7.03;;;;;;;;;;10459949;28;20051;-80
2021/11/12 12:08:52;;;;;;;10.40;6.97;;;;;;;;;;10444205;28;20033;-81
2021/11/12 12:14:23;;;;;;;14.30;8.30;;;;;;;;;;10455024;28;20044;-81
2021/11/12 12:19:59;;;;;;;10.88;7.90;;;;;;;;;;10434933;28;20082;-80
2021/11/12 13:25:23;;;;;;;10.27;7.20;;;;;;;;;;10366392;28;20519;-81
2021/11/12 13:30:27;;;;;;;10.70;6.28;;;;;;;;;;10376195;28;20427;-81
2021/11/12 13:35:29;;;;;;;11.18;6.68;;;;;;;;;;10364057;28;20486;-81
2021/11/12 13:40:34;;;;;;;10.18;6.38;;;;;;;;;;10376508;28;20351;-82
2021/11/12 13:45:34;;;;;;;9.15;6.13;;;;;;;;;;10372669;28;20522;-82
2021/11/12 13:50:39;;;;;;;9.67;5.90;;;;;;;;;;10364617;28;20057;-83
2021/11/12 13:55:40;;;;;;;7.13;5.50;;;;;;;;;;10377858;28;20470;-84
2021/11/12 14:00:40;;;;;;;10.95;6.10;;;;;;;;;;10378701;28;20033;-81
2021/11/12 14:05:53;;;;;;;13.63;5.67;;;;;;;;;;10376673;28;20068;-82
2021/11/12 14:10:53;;;;;;;10.48;5.90;;;;;;;;;;10376786;28;20436;-81
2021/11/12 14:26:27;;;;;;;10.98;5.88;;;;;;;;;;10374232;28;20041;-81
2021/11/12 14:37:14;;;;;;;6.88;4.70;;;;;;;;;;10364766;28;20468;-81
2021/11/12 14:53:06;;;;;;;8.43;5.05;;;;;;;;;;10326133;28;20035;-81
2021/11/12 14:58:07;;;;;;;10.57;5.35;;;;;;;;;;10328057;28;20043;-81
2021/11/12 15:03:07;;;;;;;13.07;5.32;;;;;;;;;;10327929;28;20038;-80
2021/11/12 15:08:19;;;;;;;15.25;6.68;;;;;;;;;;10327820;28;20030;-80
2021/11/12 15:13:20;;;;;;;17.75;6.72;;;;;;;;;;10327070;28;20043;-80
2021/11/12 15:18:20;;;;;;;17.38;7.18;;;;;;;;;;10349554;28;20033;-80
2021/11/12 15:23:36;;;;;;;19.67;6.65;;;;;;;;;;10362241;28;20395;-80
2021/11/12 15:33:45;;;;;;;13.48;7.32;;;;;;;;;;10372148;28;20061;-81
2021/11/12 15:38:54;;;;;;;17.48;6.53;;;;;;;;;;10380227;28;20018;-80
2021/11/12 15:48:55;;;;;;;14.27;6.07;;;;;;;;;;10378538;28;20053;-80
2021/11/12 15:59:04;;;;;;;14.73;6.07;;;;;;;;;;10378699;28;20069;-80
2021/11/12 16:20:05;;;;;;;11.10;6.10;;;;;;;;;;10377909;28;20030;-80
2021/11/12 16:30:06;;;;;;;14.98;6.25;;;;;;;;;;10389290;28;20069;-80
2021/11/12 16:35:09;;;;;;;9.68;5.70;;;;;;;;;;10377881;28;20068;-80
2021/11/12 16:56:25;;;;;;;13.20;5.55;;;;;;;;;;10364560;28;20046;-80
2021/11/12 17:12:20;;;;;;;10.90;5.72;;;;;;;;;;10370617;28;20069;-81
2021/11/12 17:23:05;;;;;;;9.85;5.50;;;;;;;;;;10376240;28;20113;-80
2021/11/12 21:47:35;;;;;;;15.43;9.20;;;;;;;;;;10375343;28;20319;-80
2021/11/12 21:52:36;;;;;;;17.83;9.88;;;;;;;;;;10376032;28;20054;-80
2021/11/12 21:57:36;;;;;;;15.00;9.67;;;;;;;;;;10376204;28;20041;-80
2021/11/12 22:02:37;;;;;;;18.52;9.35;;;;;;;;;;10375566;28;20456;-80
2021/11/12 22:07:37;;;;;;;14.37;9.17;;;;;;;;;;10375206;28;20034;-80
2021/11/12 22:12:38;;;;;;;13.43;9.20;;;;;;;;;;10374847;28;20065;-80
2021/11/12 22:17:38;;;;;;;16.35;9.65;;;;;;;;;;10376021;28;20479;-80
2021/11/12 22:22:40;;;;;;;14.75;9.95;;;;;;;;;;10377752;28;20065;-80
2021/11/12 22:27:40;;;;;;;17.45;10.18;;;;;;;;;;10375930;28;20050;-80
2021/11/12 22:32:41;;;;;;;15.63;8.98;;;;;;;;;;10373952;28;20063;-80
2021/11/12 22:37:41;;;;;;;15.82;9.43;;;;;;;;;;10373665;28;20030;-81
2021/11/12 22:42:42;;;;;;;16.02;9.73;;;;;;;;;;10373533;28;20022;-81
2021/11/12 22:47:47;;;;;;;14.15;9.68;;;;;;;;;;10358722;28;20034;-82
2021/11/12 22:52:47;;;;;;;19.40;10.00;;;;;;;;;;10366621;28;20391;-82
2021/11/12 22:57:49;;;;;;;22.08;10.38;;;;;;;;;;10347233;28;20029;-81
2021/11/12 23:02:51;;;;;;;21.42;10.52;;;;;;;;;;10349715;28;20037;-81
2021/11/12 23:07:51;;;;;;;27.92;10.30;;;;;;;;;;10351394;28;20065;-81
2021/11/12 23:12:52;;;;;;;24.50;10.50;;;;;;;;;;10346340;28;20065;-81
2021/11/12 23:17:54;;;;;;;20.90;10.35;;;;;;;;;;10345371;28;20120;-81
2021/11/12 23:22:55;;;;;;;16.90;9.73;;;;;;;;;;10349311;28;20164;-81
2021/11/12 23:27:55;;;;;;;18.35;9.00;;;;;;;;;;10351325;28;20169;-81
2021/11/12 23:32:56;;;;;;;16.77;9.65;;;;;;;;;;10355621;28;20037;-81
2021/11/12 23:37:57;;;;;;;13.80;9.02;;;;;;;;;;10347117;28;20053;-81
2021/11/12 23:42:57;;;;;;;21.33;9.10;;;;;;;;;;10381275;28;20396;-81
2021/11/12 23:47:58;;;;;;;18.93;9.57;;;;;;;;;;10363232;28;20523;-81
2021/11/12 23:52:58;;;;;;;14.98;9.00;;;;;;;;;;10365947;28;20041;-81
2021/11/12 23:57:59;;;;;;;20.15;9.73;;;;;;;;;;10375794;28;20095;-81
